Time;durP1;ratioP1;P1;durP2;ratioP2;P2;SDS_P1;SDS_P2;PMS_P1;PMS_P2;Temp;Humidity;BMP_temperature;BMP_pressure;BME280_temperature;BME280_humidity;BME280_pressure;Samples;Min_cycle;Max_cycle;Signal;HPM_P1;HPM_P2
2021/12/10 00:00:43;;;;;;;97.30;40.97;;;0.90;99.90;;;;;;5102448;28;20580;-73
2021/12/10 00:03:15;;;;;;;90.00;37.60;;;0.80;99.90;;;;;;5091180;28;20191;-72
2021/12/10 00:05:49;;;;;;;92.80;39.20;;;0.70;99.90;;;;;;5112330;28;20238;-73
2021/12/10 00:08:15;;;;;;;91.43;40.20;;;0.60;99.90;;;;;;5076373;28;20217;-74
2021/12/10 00:10:45;;;;;;;90.20;39.07;;;0.60;99.90;;;;;;5075182;28;20296;-73
2021/12/10 00:13:11;;;;;;;98.10;41.97;;;0.70;99.90;;;;;;5094215;28;20214;-73
2021/12/10 00:15:40;;;;;;;96.20;41.13;;;0.70;99.90;;;;;;5105692;28;21917;-73
2021/12/10 00:18:08;;;;;;;97.03;40.77;;;0.60;99.90;;;;;;5074427;28;20570;-72
2021/12/10 00:20:35;;;;;;;91.37;40.73;;;0.70;99.90;;;;;;5073292;28;20657;-71
2021/12/10 00:23:07;;;;;;;95.67;41.23;;;0.70;99.90;;;;;;5089703;28;21026;-72
2021/12/10 00:25:39;;;;;;;91.17;39.20;;;0.70;99.90;;;;;;5103793;28;20256;-72
2021/12/10 00:28:14;;;;;;;89.60;40.43;;;0.70;99.90;;;;;;5081443;28;20229;-73
2021/12/10 00:31:15;;;;;;;98.10;41.30;;;0.80;99.90;;;;;;5080685;28;20227;-73
2021/12/10 00:33:46;;;;;;;95.60;38.37;;;0.70;99.90;;;;;;5115652;28;20236;-75
2021/12/10 00:36:12;;;;;;;88.00;38.70;;;0.70;99.90;;;;;;5115207;28;20167;-73
2021/12/10 00:38:39;;;;;;;92.00;40.10;;;0.60;99.90;;;;;;5094432;28;20267;-74
2021/12/10 00:41:06;;;;;;;85.50;37.73;;;0.60;99.90;;;;;;5114482;28;20215;-74
2021/12/10 00:43:31;;;;;;;90.47;39.20;;;0.70;99.90;;;;;;5114521;28;20242;-72
2021/12/10 00:45:57;;;;;;;92.23;41.30;;;0.70;99.90;;;;;;5110170;28;20712;-74
2021/12/10 00:48:23;;;;;;;91.77;39.10;;;0.70;99.90;;;;;;5091950;28;20184;-74
2021/12/10 00:50:51;;;;;;;90.07;39.40;;;0.70;99.90;;;;;;5113747;28;20177;-75
2021/12/10 00:53:17;;;;;;;95.20;41.83;;;0.60;99.90;;;;;;5092086;28;20214;-73
2021/12/10 00:55:42;;;;;;;97.30;40.77;;;0.70;99.90;;;;;;5112292;28;20599;-74
2021/12/10 00:58:09;;;;;;;87.27;37.60;;;0.70;99.90;;;;;;5114277;28;20205;-73
2021/12/10 01:00:39;;;;;;;91.47;39.77;;;0.70;99.90;;;;;;5098740;28;20217;-72
2021/12/10 01:03:09;;;;;;;87.63;39.17;;;0.70;99.90;;;;;;5117929;28;20685;-74
2021/12/10 01:05:37;;;;;;;84.03;37.93;;;0.70;99.90;;;;;;5097762;28;20234;-72
2021/12/10 01:08:03;;;;;;;85.10;38.47;;;0.70;99.90;;;;;;5120244;28;20218;-73
2021/12/10 01:10:35;;;;;;;89.73;40.37;;;0.70;99.90;;;;;;5116442;28;20212;-72
2021/12/10 01:13:03;;;;;;;90.73;40.00;;;0.70;99.90;;;;;;5094537;28;20217;-73
2021/12/10 01:16:09;;;;;;;95.40;41.40;;;0.70;99.90;;;;;;5090693;28;20217;-73
2021/12/10 01:27:24;;;;;;;90.27;40.03;;;0.70;99.90;;;;;;5050794;28;20191;-73
2021/12/10 01:29:56;;;;;;;89.50;39.47;;;0.70;99.90;;;;;;5097355;28;20173;-73
2021/12/10 01:32:23;;;;;;;92.50;39.07;;;0.70;99.90;;;;;;5103716;28;20219;-74
2021/12/10 01:34:49;;;;;;;95.83;39.90;;;0.60;99.90;;;;;;5112129;28;20239;-73
2021/12/10 01:37:15;;;;;;;82.93;36.43;;;0.60;99.90;;;;;;5112231;28;20301;-73
2021/12/10 01:39:42;;;;;;;82.83;37.37;;;0.60;99.90;;;;;;5111753;28;20703;-72
2021/12/10 01:42:41;;;;;;;88.63;37.03;;;0.50;99.90;;;;;;5113126;28;20200;-71
2021/12/10 01:45:00;;;;;;;82.23;35.57;;;0.60;99.90;;;;;;5107930;28;20678;-72
2021/12/10 01:47:31;;;;;;;93.87;38.80;;;0.50;99.90;;;;;;5109437;28;20298;-70
2021/12/10 01:49:57;;;;;;;90.43;39.73;;;0.40;99.90;;;;;;5112657;28;20616;-73
2021/12/10 01:52:25;;;;;;;98.30;39.77;;;0.50;99.90;;;;;;5103674;28;20256;-73
2021/12/10 01:54:55;;;;;;;87.93;38.87;;;0.50;99.90;;;;;;5112390;28;20215;-73
2021/12/10 01:57:24;;;;;;;96.57;41.10;;;0.60;99.90;;;;;;5090574;28;20188;-71
2021/12/10 01:59:50;;;;;;;90.23;39.60;;;0.60;99.90;;;;;;5108749;28;20232;-74
2021/12/10 02:02:25;;;;;;;90.13;38.47;;;0.60;99.90;;;;;;5088033;28;20236;-73
2021/12/10 02:04:52;;;;;;;90.10;37.30;;;0.50;99.90;;;;;;5093946;28;20880;-73
2021/12/10 02:07:21;;;;;;;91.70;39.87;;;0.60;99.90;;;;;;5110828;28;20670;-73
2021/12/10 02:09:48;;;;;;;93.40;40.00;;;0.60;99.90;;;;;;5112714;28;20286;-73
2021/12/10 02:12:15;;;;;;;82.87;36.67;;;0.50;99.90;;;;;;5093145;28;20188;-72
2021/12/10 02:14:42;;;;;;;89.80;39.73;;;0.60;99.90;;;;;;5112956;28;20171;-74
2021/12/10 02:17:08;;;;;;;87.30;37.70;;;0.60;99.90;;;;;;5110573;28;20691;-74
2021/12/10 02:19:35;;;;;;;85.50;36.47;;;0.60;99.90;;;;;;5104111;28;20292;-71
2021/12/10 02:22:02;;;;;;;77.83;36.13;;;0.60;99.90;;;;;;5108610;28;20823;-72
2021/12/10 02:24:28;;;;;;;83.43;36.17;;;0.60;99.90;;;;;;5114547;28;20797;-72
2021/12/10 02:27:01;;;;;;;81.80;36.40;;;0.60;99.90;;;;;;5096435;28;20190;-72
2021/12/10 02:29:28;;;;;;;84.23;36.73;;;0.60;99.90;;;;;;5114226;28;20220;-72
2021/12/10 02:31:54;;;;;;;88.43;37.70;;;0.60;99.90;;;;;;5114176;28;20293;-72
2021/12/10 02:34:21;;;;;;;85.97;36.27;;;0.60;99.90;;;;;;5092610;28;20300;-73
2021/12/10 02:36:47;;;;;;;87.13;36.60;;;0.60;99.90;;;;;;5112789;28;20251;-72
2021/12/10 02:39:17;;;;;;;80.13;35.20;;;0.70;99.90;;;;;;5113996;28;20184;-72
2021/12/10 02:41:44;;;;;;;89.27;38.33;;;0.60;99.90;;;;;;5094419;28;20172;-72
2021/12/10 02:44:14;;;;;;;83.80;37.07;;;0.70;99.90;;;;;;5092299;28;20245;-72
2021/12/10 02:46:40;;;;;;;87.77;38.60;;;0.80;99.90;;;;;;5107085;28;20208;-73
2021/12/10 02:49:08;;;;;;;86.30;37.90;;;0.80;99.90;;;;;;5092439;28;20211;-73
2021/12/10 02:51:35;;;;;;;90.00;37.57;;;0.80;99.90;;;;;;5110550;28;20203;-72
2021/12/10 02:54:04;;;;;;;83.20;36.87;;;0.80;99.90;;;;;;5092845;28;20193;-73
2021/12/10 02:56:30;;;;;;;86.63;35.17;;;0.80;99.90;;;;;;5110003;28;20774;-72
2021/12/10 02:58:58;;;;;;;79.07;36.10;;;0.80;99.90;;;;;;5113578;28;20285;-72
2021/12/10 03:01:32;;;;;;;80.63;36.90;;;0.70;99.90;;;;;;5091797;28;20247;-72
2021/12/10 03:03:59;;;;;;;77.97;36.30;;;0.70;99.90;;;;;;5091788;28;20210;-73
2021/12/10 03:06:26;;;;;;;83.07;36.47;;;0.60;99.90;;;;;;5076386;28;20172;-72
2021/12/10 03:08:54;;;;;;;88.07;37.93;;;0.60;99.90;;;;;;5081573;28;20174;-72
2021/12/10 03:11:25;;;;;;;84.17;37.47;;;0.60;99.90;;;;;;5092077;28;20206;-72
2021/12/10 03:13:51;;;;;;;93.00;37.43;;;0.70;99.90;;;;;;5096691;28;20209;-72
2021/12/10 03:16:17;;;;;;;76.03;36.57;;;0.70;99.90;;;;;;5091929;28;20209;-72
2021/12/10 03:18:43;;;;;;;83.73;36.37;;;0.70;99.90;;;;;;5111049;28;20213;-72
2021/12/10 03:21:10;;;;;;;86.60;37.60;;;0.60;99.90;;;;;;5111987;28;20546;-70
2021/12/10 03:23:42;;;;;;;89.47;37.43;;;0.70;99.90;;;;;;5113599;28;20195;-72
2021/12/10 03:26:09;;;;;;;76.67;36.80;;;0.70;99.90;;;;;;5113453;28;20203;-71
2021/12/10 03:28:35;;;;;;;82.90;37.53;;;0.70;99.90;;;;;;5112936;28;20248;-71
2021/12/10 03:31:00;;;;;;;86.03;37.13;;;0.70;99.90;;;;;;5113319;28;20204;-71
2021/12/10 03:33:26;;;;;;;82.47;36.30;;;0.70;99.90;;;;;;5091302;28;20201;-71
2021/12/10 03:35:51;;;;;;;81.97;36.50;;;0.60;99.90;;;;;;5112614;28;20170;-72
2021/12/10 03:38:20;;;;;;;89.57;37.23;;;0.70;99.90;;;;;;5103297;28;20209;-72
2021/12/10 03:40:46;;;;;;;86.57;36.03;;;0.70;99.90;;;;;;5096093;28;20250;-72
2021/12/10 03:43:12;;;;;;;85.50;38.07;;;0.60;99.90;;;;;;5131728;22;20338;-77
2021/12/10 03:45:40;;;;;;;86.83;35.43;;;0.60;99.90;;;;;;5111662;28;20238;-75
2021/12/10 03:48:10;;;;;;;87.03;36.30;;;0.70;99.90;;;;;;5113320;28;20201;-75
2021/12/10 03:50:35;;;;;;;83.07;37.60;;;0.70;99.90;;;;;;5094401;28;20222;-75
2021/12/10 03:53:01;;;;;;;82.33;36.97;;;0.70;99.90;;;;;;5094642;28;20224;-77
2021/12/10 03:55:27;;;;;;;95.87;40.80;;;0.60;99.90;;;;;;5095345;28;20251;-74
2021/12/10 03:57:55;;;;;;;88.23;37.90;;;0.70;99.90;;;;;;5113485;28;20258;-75
2021/12/10 04:00:23;;;;;;;86.93;38.00;;;0.60;99.90;;;;;;5113655;28;20291;-75
2021/12/10 04:02:49;;;;;;;87.93;39.80;;;0.70;99.90;;;;;;5096459;28;20176;-75
2021/12/10 04:05:15;;;;;;;90.82;39.63;;;0.60;99.90;;;;;;5113859;28;20386;-75
2021/12/10 04:07:41;;;;;;;91.97;39.67;;;0.60;99.90;;;;;;5108993;28;20586;-74
2021/12/10 04:10:09;;;;;;;86.93;39.33;;;0.60;99.90;;;;;;5088790;28;20209;-74
2021/12/10 04:12:35;;;;;;;94.43;39.33;;;0.70;99.90;;;;;;5094270;28;20208;-75
2021/12/10 04:15:01;;;;;;;86.73;37.67;;;0.70;99.90;;;;;;5113272;28;20198;-74
2021/12/10 04:17:27;;;;;;;90.30;39.67;;;0.80;99.90;;;;;;5112685;28;20206;-75
2021/12/10 04:19:53;;;;;;;91.90;39.23;;;0.80;99.90;;;;;;5093937;28;20212;-75
2021/12/10 04:22:21;;;;;;;93.13;40.00;;;0.80;99.90;;;;;;5094011;28;20204;-75
2021/12/10 04:24:46;;;;;;;89.30;38.33;;;0.70;99.90;;;;;;5093883;28;20212;-75
2021/12/10 04:27:17;;;;;;;89.37;38.07;;;0.60;99.90;;;;;;5093885;28;20265;-75
2021/12/10 04:29:43;;;;;;;99.73;39.30;;;0.70;99.90;;;;;;5112330;28;20226;-75
2021/12/10 04:32:12;;;;;;;94.23;39.40;;;0.70;99.90;;;;;;5113856;28;20208;-75
2021/12/10 04:34:38;;;;;;;98.03;42.63;;;0.70;99.90;;;;;;5116148;28;20268;-75
2021/12/10 04:37:07;;;;;;;88.77;37.97;;;0.70;99.90;;;;;;5097559;28;20301;-75
2021/12/10 04:39:34;;;;;;;93.53;39.93;;;0.70;99.90;;;;;;5105024;28;20218;-75
2021/12/10 04:42:00;;;;;;;91.57;38.40;;;0.60;99.90;;;;;;5098104;28;20204;-75
2021/12/10 04:44:26;;;;;;;98.00;40.33;;;0.60;99.90;;;;;;5096649;28;20695;-74
2021/12/10 04:46:52;;;;;;;91.60;39.07;;;0.60;99.90;;;;;;5115559;28;20242;-75
2021/12/10 04:49:18;;;;;;;88.63;38.70;;;0.70;99.90;;;;;;5096632;28;20698;-75
2021/12/10 04:51:48;;;;;;;91.93;39.30;;;0.80;99.90;;;;;;5115092;28;20677;-75
2021/12/10 04:54:15;;;;;;;102.20;41.30;;;0.70;99.90;;;;;;5096299;28;20226;-75
2021/12/10 04:56:41;;;;;;;89.93;40.60;;;0.80;99.90;;;;;;5094114;28;20189;-75
2021/12/10 04:59:08;;;;;;;92.67;40.97;;;0.80;99.90;;;;;;5093225;28;20286;-75
2021/12/10 05:01:34;;;;;;;93.27;40.60;;;0.80;99.90;;;;;;5101235;28;20282;-78
2021/12/10 05:04:01;;;;;;;92.50;39.60;;;0.80;99.90;;;;;;5105248;28;20682;-75
2021/12/10 05:06:26;;;;;;;93.53;39.37;;;0.70;99.90;;;;;;5110360;28;20188;-74
2021/12/10 05:08:52;;;;;;;95.60;39.87;;;0.80;99.90;;;;;;5096888;28;20548;-74
2021/12/10 05:11:17;;;;;;;95.97;41.53;;;0.90;99.90;;;;;;5111387;28;20292;-74
2021/12/10 05:13:45;;;;;;;91.70;38.80;;;0.90;99.90;;;;;;5111197;28;20202;-74
2021/12/10 05:16:11;;;;;;;93.93;40.17;;;0.90;99.90;;;;;;5111273;28;20205;-74
2021/12/10 05:18:40;;;;;;;95.67;40.63;;;0.90;99.90;;;;;;5110618;28;20203;-75
2021/12/10 05:21:08;;;;;;;97.27;40.67;;;1.00;99.90;;;;;;5103080;28;20211;-74
2021/12/10 05:23:34;;;;;;;93.10;40.50;;;1.00;99.90;;;;;;5097249;28;20216;-75
2021/12/10 05:26:00;;;;;;;94.87;40.87;;;0.90;99.90;;;;;;5091226;28;20206;-75
2021/12/10 05:28:26;;;;;;;95.70;41.87;;;0.90;99.90;;;;;;5090792;28;20205;-75
2021/12/10 05:30:55;;;;;;;99.43;40.40;;;0.80;99.90;;;;;;5095431;28;20572;-75
2021/12/10 05:33:22;;;;;;;104.37;43.07;;;0.80;99.90;;;;;;5094255;28;20195;-76
2021/12/10 05:35:48;;;;;;;102.67;41.43;;;0.80;99.90;;;;;;5091660;28;20173;-75
2021/12/10 05:38:17;;;;;;;89.73;40.17;;;0.80;99.90;;;;;;5099023;28;20226;-75
2021/12/10 05:40:46;;;;;;;91.90;39.80;;;0.90;99.90;;;;;;5093547;28;20211;-76
2021/12/10 05:43:12;;;;;;;91.57;39.50;;;1.00;99.90;;;;;;5110947;28;20223;-75
2021/12/10 05:45:38;;;;;;;94.83;40.67;;;1.00;99.90;;;;;;5103954;28;20215;-75
2021/12/10 05:48:04;;;;;;;93.73;41.43;;;1.00;99.90;;;;;;5094966;28;20189;-75
2021/12/10 05:50:31;;;;;;;93.53;40.60;;;1.10;99.90;;;;;;5082306;28;20240;-75
2021/12/10 05:52:56;;;;;;;93.97;39.57;;;1.00;99.90;;;;;;5114054;28;20210;-76
2021/12/10 05:55:23;;;;;;;91.90;37.97;;;0.90;99.90;;;;;;5106885;28;20207;-75
2021/12/10 05:57:49;;;;;;;90.37;41.03;;;0.80;99.90;;;;;;5094818;28;20197;-76
2021/12/10 06:00:19;;;;;;;95.97;40.77;;;0.90;99.90;;;;;;5094642;28;20194;-75
2021/12/10 06:02:45;;;;;;;86.67;39.70;;;0.80;99.90;;;;;;5094997;28;20627;-76
2021/12/10 06:05:11;;;;;;;98.63;40.83;;;0.90;99.90;;;;;;5091531;28;20293;-76
2021/12/10 06:07:38;;;;;;;94.00;41.37;;;0.90;99.90;;;;;;5104223;28;20250;-75
2021/12/10 06:10:06;;;;;;;93.00;39.47;;;0.90;99.90;;;;;;5094650;28;20300;-76
2021/12/10 06:12:31;;;;;;;94.50;40.53;;;0.90;99.90;;;;;;5094347;28;20204;-76
2021/12/10 06:14:57;;;;;;;94.60;40.63;;;1.00;99.90;;;;;;5076483;28;20567;-76
2021/12/10 06:17:23;;;;;;;94.00;39.77;;;1.00;99.90;;;;;;5094271;28;20213;-76
2021/12/10 06:19:48;;;;;;;97.97;40.63;;;1.00;99.90;;;;;;5076216;28;20213;-75
2021/12/10 06:22:14;;;;;;;100.40;41.20;;;1.00;99.90;;;;;;5094251;28;20216;-76
2021/12/10 06:24:39;;;;;;;94.63;39.57;;;1.00;99.90;;;;;;5078288;28;20218;-76
2021/12/10 06:27:05;;;;;;;95.67;42.70;;;0.90;99.90;;;;;;5096991;28;20624;-76
2021/12/10 06:29:31;;;;;;;93.03;41.03;;;0.80;99.90;;;;;;5097078;28;20210;-76
2021/12/10 06:31:57;;;;;;;103.33;40.67;;;0.70;99.90;;;;;;5101157;28;20216;-76
2021/12/10 06:34:23;;;;;;;98.57;43.27;;;0.70;99.90;;;;;;5093972;28;20206;-76
2021/12/10 06:36:49;;;;;;;99.60;43.87;;;0.70;99.90;;;;;;5094203;28;20592;-76
2021/12/10 06:39:20;;;;;;;103.53;43.23;;;0.80;99.90;;;;;;5093686;28;20320;-76
2021/12/10 06:41:50;;;;;;;106.83;44.03;;;0.80;99.90;;;;;;5111476;28;20175;-76
2021/12/10 06:44:16;;;;;;;100.53;44.00;;;0.90;99.90;;;;;;5093889;28;20575;-76
2021/12/10 06:46:43;;;;;;;104.10;42.67;;;0.90;99.90;;;;;;5096698;28;20703;-76
2021/12/10 06:49:08;;;;;;;105.10;44.43;;;0.90;99.90;;;;;;5108488;28;20572;-76
2021/12/10 06:51:34;;;;;;;109.40;46.90;;;1.00;99.90;;;;;;5103676;28;20201;-75
2021/12/10 06:53:59;;;;;;;107.43;42.83;;;1.00;99.90;;;;;;5094181;28;20207;-75
2021/12/10 06:56:26;;;;;;;110.30;43.83;;;0.90;99.90;;;;;;5093105;28;20287;-75
2021/12/10 06:58:51;;;;;;;105.63;44.87;;;0.80;99.90;;;;;;5093261;28;20297;-75
2021/12/10 07:01:24;;;;;;;96.57;42.33;;;0.80;99.90;;;;;;5093674;28;20302;-75
2021/12/10 07:03:52;;;;;;;113.67;45.90;;;0.80;99.90;;;;;;5094309;28;20612;-76
2021/12/10 07:06:18;;;;;;;93.30;42.10;;;0.80;99.90;;;;;;5093307;28;20179;-76
2021/12/10 07:08:46;;;;;;;109.07;43.10;;;0.70;99.90;;;;;;5093865;28;20780;-76
2021/12/10 07:11:15;;;;;;;111.37;44.40;;;0.80;99.90;;;;;;5093501;28;20209;-76
2021/12/10 07:13:44;;;;;;;112.77;45.37;;;0.80;99.90;;;;;;5085730;28;21131;-76
2021/12/10 07:16:10;;;;;;;111.33;44.87;;;0.70;99.90;;;;;;5106642;28;20213;-76
2021/12/10 07:18:37;;;;;;;118.43;46.47;;;0.80;99.90;;;;;;5092887;28;20208;-76
2021/12/10 07:21:05;;;;;;;119.43;46.47;;;0.80;99.90;;;;;;5093457;28;20208;-76
2021/12/10 07:23:31;;;;;;;118.97;48.43;;;0.80;99.90;;;;;;5092835;28;20215;-76
2021/12/10 07:25:56;;;;;;;108.07;43.77;;;0.80;99.90;;;;;;5093095;28;20202;-76
2021/12/10 07:28:22;;;;;;;110.00;44.57;;;0.80;99.90;;;;;;5092681;28;20206;-76
2021/12/10 07:30:48;;;;;;;104.40;43.37;;;0.90;99.90;;;;;;5093032;28;20522;-76
2021/12/10 07:33:16;;;;;;;96.97;41.13;;;0.80;99.90;;;;;;5081901;28;20189;-76
2021/12/10 07:35:43;;;;;;;105.60;43.70;;;0.80;99.90;;;;;;5094008;28;20174;-76
2021/12/10 07:38:09;;;;;;;106.67;46.17;;;0.80;99.90;;;;;;5093235;28;20211;-76
2021/12/10 07:40:37;;;;;;;106.67;43.00;;;0.90;99.90;;;;;;5092200;28;20220;-76
2021/12/10 07:43:04;;;;;;;110.30;43.67;;;0.90;99.90;;;;;;5106991;28;20207;-76
2021/12/10 07:45:30;;;;;;;114.93;45.97;;;0.90;99.90;;;;;;5094998;28;20217;-76
2021/12/10 07:47:59;;;;;;;103.57;44.63;;;0.90;99.90;;;;;;5106271;28;20263;-76
2021/12/10 07:50:29;;;;;;;106.80;44.83;;;0.90;99.90;;;;;;5103615;28;20333;-76
2021/12/10 07:52:56;;;;;;;105.97;45.00;;;0.90;99.90;;;;;;5081363;28;20264;-76
2021/12/10 07:55:26;;;;;;;106.53;44.67;;;0.90;99.90;;;;;;5108850;28;20234;-75
2021/12/10 07:57:52;;;;;;;98.60;43.30;;;0.90;99.90;;;;;;5088211;28;20242;-76
2021/12/10 08:00:21;;;;;;;111.23;46.40;;;0.90;99.90;;;;;;5096791;28;20255;-76
2021/12/10 08:02:47;;;;;;;114.90;46.67;;;0.90;99.90;;;;;;5096408;28;20553;-76
2021/12/10 08:05:14;;;;;;;113.60;47.13;;;0.90;99.90;;;;;;5105009;28;20212;-76
2021/12/10 08:07:40;;;;;;;114.93;47.67;;;0.90;99.90;;;;;;5091280;28;20213;-76
2021/12/10 08:10:08;;;;;;;123.80;48.70;;;1.00;99.90;;;;;;5077137;28;20215;-76
2021/12/10 08:12:34;;;;;;;113.90;47.07;;;1.00;99.90;;;;;;5110713;28;20206;-74
2021/12/10 08:15:00;;;;;;;109.90;45.13;;;1.00;99.90;;;;;;5099569;28;20243;-76
2021/12/10 08:17:26;;;;;;;108.97;46.70;;;1.00;99.90;;;;;;5109468;28;20209;-76
2021/12/10 08:19:52;;;;;;;107.93;46.10;;;1.00;99.90;;;;;;5106701;28;20611;-76
2021/12/10 08:22:18;;;;;;;102.80;43.63;;;1.10;99.90;;;;;;5073354;28;20258;-76
2021/12/10 08:24:44;;;;;;;113.97;45.93;;;1.00;99.90;;;;;;5112322;28;20291;-76
2021/12/10 08:27:11;;;;;;;110.20;44.63;;;1.00;99.90;;;;;;5106863;28;20321;-76
2021/12/10 08:29:37;;;;;;;118.60;47.10;;;1.10;99.90;;;;;;5077751;28;20182;-76
2021/12/10 08:32:03;;;;;;;108.00;46.80;;;1.10;99.90;;;;;;5111351;28;20208;-76
2021/12/10 08:34:30;;;;;;;108.40;45.87;;;1.20;99.90;;;;;;5086694;28;20241;-75
2021/12/10 08:36:56;;;;;;;108.57;45.53;;;1.10;99.90;;;;;;5086734;28;20223;-76
2021/12/10 08:39:23;;;;;;;107.10;46.40;;;1.20;99.90;;;;;;5081727;28;20190;-76
2021/12/10 08:41:48;;;;;;;116.93;46.77;;;1.20;99.90;;;;;;5102124;28;20176;-76
2021/12/10 08:44:15;;;;;;;117.83;46.57;;;1.30;99.90;;;;;;5102645;28;20296;-77
2021/12/10 08:46:44;;;;;;;115.50;47.37;;;1.20;99.90;;;;;;5097433;28;20226;-75
2021/12/10 08:49:10;;;;;;;111.07;45.73;;;1.30;99.90;;;;;;5091038;28;20287;-76
2021/12/10 08:51:40;;;;;;;107.87;44.77;;;1.40;99.90;;;;;;5092496;28;20225;-76
2021/12/10 08:54:07;;;;;;;107.80;43.50;;;1.30;99.90;;;;;;5104665;28;20681;-76
2021/12/10 08:56:35;;;;;;;110.30;44.47;;;1.20;99.90;;;;;;5090321;28;20247;-76
2021/12/10 08:59:02;;;;;;;108.03;45.27;;;1.20;99.90;;;;;;5081554;28;20223;-76
2021/12/10 09:01:32;;;;;;;109.13;47.40;;;1.40;99.90;;;;;;5084693;28;20264;-76
2021/12/10 09:04:01;;;;;;;106.00;44.07;;;1.40;99.90;;;;;;5103856;28;20221;-76
2021/12/10 09:06:29;;;;;;;111.37;45.20;;;1.40;99.90;;;;;;5089392;28;20179;-75
2021/12/10 09:08:56;;;;;;;114.53;46.17;;;1.40;99.90;;;;;;5111844;28;20176;-76
2021/12/10 09:11:23;;;;;;;105.93;43.73;;;1.40;99.90;;;;;;5082942;28;20219;-76
2021/12/10 09:13:49;;;;;;;106.13;45.53;;;1.40;99.90;;;;;;5087988;28;20830;-76
2021/12/10 09:16:24;;;;;;;111.23;46.10;;;1.40;99.90;;;;;;5097953;28;20212;-76
2021/12/10 09:18:52;;;;;;;107.03;44.53;;;1.50;99.90;;;;;;5106058;28;20208;-76
2021/12/10 09:21:18;;;;;;;107.90;49.10;;;1.50;99.90;;;;;;5088659;28;20207;-76
2021/12/10 09:23:44;;;;;;;97.23;43.97;;;1.50;99.90;;;;;;5082451;28;20203;-76
2021/12/10 09:26:13;;;;;;;106.43;45.73;;;1.40;99.90;;;;;;5095133;28;20303;-75
2021/12/10 09:28:42;;;;;;;99.07;43.43;;;1.40;99.90;;;;;;5091741;28;20217;-76
2021/12/10 09:31:08;;;;;;;112.60;45.73;;;1.40;99.90;;;;;;5105403;28;20235;-76
2021/12/10 09:33:35;;;;;;;109.77;45.60;;;1.60;99.90;;;;;;5093057;28;20305;-76
2021/12/10 09:36:02;;;;;;;109.33;45.63;;;1.60;99.90;;;;;;5092332;28;20181;-76
2021/12/10 09:38:28;;;;;;;105.30;45.87;;;1.70;99.90;;;;;;5107974;28;20690;-75
2021/12/10 09:40:58;;;;;;;109.00;46.27;;;1.70;99.90;;;;;;5098910;28;20685;-76
2021/12/10 09:43:24;;;;;;;108.40;44.43;;;1.60;99.90;;;;;;5099720;28;20220;-75
2021/12/10 09:45:52;;;;;;;121.07;48.10;;;1.60;99.90;;;;;;5108851;22;20245;-73
2021/12/10 09:48:18;;;;;;;117.67;49.03;;;1.60;99.90;;;;;;5105958;28;20282;-75
2021/12/10 09:50:54;;;;;;;119.07;48.60;;;1.50;99.90;;;;;;5111370;28;20667;-73
2021/12/10 09:53:20;;;;;;;117.60;48.03;;;1.50;99.90;;;;;;5110794;28;20202;-74
2021/12/10 09:55:47;;;;;;;122.37;46.57;;;1.50;99.90;;;;;;5071425;28;20205;-75
2021/12/10 09:58:14;;;;;;;117.50;47.10;;;1.50;99.90;;;;;;5069610;28;20206;-73
2021/12/10 10:00:50;;;;;;;119.77;48.90;;;1.50;99.90;;;;;;5088359;28;20241;-73
2021/12/10 10:03:20;;;;;;;120.67;49.30;;;1.60;99.90;;;;;;5069779;28;20179;-73
2021/12/10 10:05:45;;;;;;;116.60;49.50;;;1.60;99.90;;;;;;5071432;28;20246;-73
2021/12/10 10:08:20;;;;;;;137.43;58.77;;;1.70;99.90;;;;;;5090585;28;20277;-73
2021/12/10 10:10:50;;;;;;;118.63;49.27;;;1.70;99.90;;;;;;5091074;28;20207;-73
2021/12/10 10:13:19;;;;;;;128.57;48.70;;;1.70;99.90;;;;;;5069286;28;20213;-74
2021/12/10 10:15:46;;;;;;;114.10;46.47;;;1.70;99.90;;;;;;5062909;28;20202;-74
2021/12/10 10:18:13;;;;;;;117.13;48.97;;;1.70;99.90;;;;;;5084839;28;20174;-73
2021/12/10 10:20:43;;;;;;;114.80;47.40;;;1.60;99.90;;;;;;5089516;28;20198;-72
2021/12/10 10:23:09;;;;;;;116.13;46.10;;;1.60;99.90;;;;;;5068640;28;20285;-73
2021/12/10 10:25:37;;;;;;;105.30;44.77;;;1.60;99.90;;;;;;5087634;28;20292;-76
2021/12/10 10:28:05;;;;;;;108.93;45.43;;;1.60;99.90;;;;;;5090371;28;20207;-76
2021/12/10 10:30:36;;;;;;;100.50;44.53;;;1.70;99.90;;;;;;5090438;28;20259;-72
2021/12/10 10:33:06;;;;;;;115.00;47.37;;;1.80;99.90;;;;;;5087428;28;20200;-72
2021/12/10 10:35:39;;;;;;;109.53;44.20;;;1.70;99.90;;;;;;5084170;28;20210;-74
2021/12/10 10:38:05;;;;;;;104.53;43.03;;;1.70;99.90;;;;;;5096018;28;20201;-70
2021/12/10 10:40:36;;;;;;;108.80;44.27;;;1.70;99.90;;;;;;5063687;28;20226;-75
2021/12/10 10:43:02;;;;;;;113.83;45.80;;;1.70;99.90;;;;;;5075339;28;20626;-76
2021/12/10 10:45:30;;;;;;;98.23;40.77;;;1.70;99.90;;;;;;5056551;28;20258;-73
2021/12/10 10:47:57;;;;;;;105.57;42.90;;;1.60;99.90;;;;;;5078807;28;20177;-72
2021/12/10 10:50:34;;;;;;;103.07;44.20;;;1.60;99.90;;;;;;5082481;28;20233;-71
2021/12/10 10:53:08;;;;;;;98.33;38.97;;;1.70;99.90;;;;;;5051871;28;20210;-73
2021/12/10 10:55:38;;;;;;;103.13;40.73;;;1.70;99.90;;;;;;5068478;28;20569;-73
2021/12/10 10:58:11;;;;;;;101.87;42.43;;;1.70;99.90;;;;;;5077877;28;20555;-74
2021/12/10 11:00:46;;;;;;;103.67;42.70;;;1.70;99.90;;;;;;5055348;28;20207;-73
2021/12/10 11:03:15;;;;;;;100.10;42.67;;;1.80;99.90;;;;;;5067803;28;20166;-69
2021/12/10 11:05:48;;;;;;;98.37;40.37;;;1.80;99.90;;;;;;5057482;28;20203;-70
2021/12/10 11:08:29;;;;;;;87.33;38.80;;;1.90;99.90;;;;;;5077501;28;20262;-69
2021/12/10 11:10:58;;;;;;;95.47;40.33;;;2.00;99.90;;;;;;5079746;28;20201;-72
2021/12/10 11:13:28;;;;;;;90.07;40.33;;;1.80;99.90;;;;;;5089041;28;20266;-72
2021/12/10 11:16:06;;;;;;;88.63;37.00;;;1.90;99.90;;;;;;5093688;28;20206;-73
2021/12/10 11:19:10;;;;;;;95.37;40.67;;;1.90;99.90;;;;;;5087798;28;20198;-76
2021/12/10 11:21:53;;;;;;;94.27;39.53;;;1.90;99.90;;;;;;5081820;28;20217;-71
2021/12/10 11:24:45;;;;;;;101.17;39.97;;;1.90;99.90;;;;;;5093080;28;20177;-71
2021/12/10 11:27:28;;;;;;;106.50;41.17;;;1.90;99.90;;;;;;5070654;28;20194;-72
2021/12/10 11:30:02;;;;;;;98.63;41.13;;;1.90;99.90;;;;;;5078168;28;20256;-70
2021/12/10 11:32:53;;;;;;;103.93;41.03;;;1.80;99.90;;;;;;5089917;28;20203;-71
2021/12/10 11:35:35;;;;;;;99.27;40.93;;;1.70;99.90;;;;;;5093120;28;20211;-71
2021/12/10 11:38:22;;;;;;;100.40;40.97;;;1.70;99.90;;;;;;5047169;28;20288;-70
2021/12/10 11:41:10;;;;;;;96.90;40.80;;;1.60;99.90;;;;;;5075481;28;20567;-72
2021/12/10 11:43:52;;;;;;;97.43;39.87;;;1.70;99.90;;;;;;5084978;28;20616;-72
2021/12/10 11:46:32;;;;;;;92.03;38.03;;;1.70;99.90;;;;;;5092004;28;20228;-73
2021/12/10 11:49:12;;;;;;;97.63;39.90;;;1.70;99.90;;;;;;5082403;28;20327;-76
2021/12/10 11:52:08;;;;;;;93.20;38.10;;;1.80;99.90;;;;;;5075696;28;20745;-74
2021/12/10 11:54:54;;;;;;;93.40;37.70;;;1.80;99.90;;;;;;5071480;28;20203;-77
2021/12/10 11:57:23;;;;;;;107.80;42.20;;;1.90;99.90;;;;;;5082527;28;20598;-75
2021/12/10 11:59:53;;;;;;;92.30;38.43;;;2.00;99.90;;;;;;5077558;28;20190;-77
2021/12/10 12:02:22;;;;;;;106.87;41.00;;;2.00;99.90;;;;;;5071031;28;20199;-73
2021/12/10 12:04:57;;;;;;;94.67;38.17;;;1.90;99.90;;;;;;5091397;28;20622;-72
2021/12/10 12:07:38;;;;;;;104.13;42.67;;;2.00;99.90;;;;;;5091897;28;20213;-75
2021/12/10 12:10:31;;;;;;;113.93;41.57;;;2.00;99.90;;;;;;5068704;28;20205;-75
2021/12/10 12:13:11;;;;;;;100.77;40.87;;;1.80;99.90;;;;;;5060896;28;20631;-73
2021/12/10 12:15:42;;;;;;;96.87;39.73;;;2.00;99.90;;;;;;5092009;28;20206;-74
2021/12/10 12:18:22;;;;;;;94.20;40.93;;;1.90;99.90;;;;;;5092720;28;20179;-75
2021/12/10 12:20:58;;;;;;;90.37;38.87;;;2.00;99.90;;;;;;5076664;28;20213;-74
2021/12/10 12:26:26;;;;;;;96.00;39.13;;;1.90;99.90;;;;;;5083856;28;20209;-73
2021/12/10 12:29:08;;;;;;;99.23;38.37;;;1.90;99.90;;;;;;5058730;28;20280;-74
2021/12/10 12:31:47;;;;;;;95.07;36.53;;;1.90;99.90;;;;;;5092531;28;20233;-73
2021/12/10 12:34:18;;;;;;;91.53;37.50;;;1.90;99.90;;;;;;5091615;28;20209;-72
2021/12/10 12:36:50;;;;;;;91.40;36.47;;;1.90;99.90;;;;;;5092295;28;20199;-75
2021/12/10 12:39:36;;;;;;;89.37;34.43;;;2.00;99.90;;;;;;5091766;28;20181;-71
2021/12/10 12:42:07;;;;;;;90.87;34.47;;;2.10;99.90;;;;;;5080519;28;20193;-73
2021/12/10 12:44:39;;;;;;;85.97;36.50;;;2.00;99.90;;;;;;5092211;28;20566;-71
2021/12/10 12:47:13;;;;;;;91.07;35.33;;;2.00;99.90;;;;;;5092995;28;20217;-73
2021/12/10 12:49:41;;;;;;;108.23;39.23;;;2.00;99.90;;;;;;5093070;28;20202;-73
2021/12/10 12:52:13;;;;;;;96.57;39.77;;;2.00;99.90;;;;;;5075283;28;20231;-74
2021/12/10 12:55:16;;;;;;;98.20;39.77;;;2.00;99.90;;;;;;5062410;28;20713;-72